Guatemala City, Guatemala
Current Conditions -  °F | °C
As of 5:00 PM on Monday 20 Oct 2014 (Local Time) from MGGT Reporting Station
Rain Showers Rain Showers  
Wind Chill: 68°   Ceiling: Unl
Heat Index: 68°   Visibility: 5mi
Dew Point: 64°   Wind: 12mph
Humidity: 88%   Direction: 180°S
Pressure: 30.12"   Gusts: NA
Location:  14.58°N, 90.52°W
Report Text: MGGT 202300Z 18010KT 8000 VC SH SCT016 FEW024CB SCT090 20/18 Q1020 A3012 CB/PCPN/S/SW/WSW
Loading
Personal Weather Stations






























Interactive Weather Map
Tropical Storm Tracking
New forecast layout! Learn more

10-Day Weather Forecast

Advertisements
Track Severe Weather on mobile